sensor_id;sensor_type;location;lat;lon;timestamp;pressure;altitude;pressure_sealevel;temperature;humidity
1401;BME280;46518;48.842;8.926;2023-06-04T00:02:09;97103.75;;;16.85;57.11
1401;BME280;46518;48.842;8.926;2023-06-04T00:04:37;97101.09;;;16.85;57.07
1401;BME280;46518;48.842;8.926;2023-06-04T00:07:05;97091.84;;;16.77;57.16
1401;BME280;46518;48.842;8.926;2023-06-04T00:09:33;97105.91;;;16.83;56.99
1401;BME280;46518;48.842;8.926;2023-06-04T00:12:02;97087.91;;;16.74;56.90
1401;BME280;46518;48.842;8.926;2023-06-04T00:14:30;97087.47;;;16.67;56.96
1401;BME280;46518;48.842;8.926;2023-06-04T00:16:58;97107.59;;;16.73;57.18
1401;BME280;46518;48.842;8.926;2023-06-04T00:19:28;97100.75;;;16.67;57.38
1401;BME280;46518;48.842;8.926;2023-06-04T00:21:56;97108.56;;;16.58;57.45
1401;BME280;46518;48.842;8.926;2023-06-04T00:24:24;97105.19;;;16.53;57.62
1401;BME280;46518;48.842;8.926;2023-06-04T00:26:52;97101.22;;;16.50;57.66
1401;BME280;46518;48.842;8.926;2023-06-04T00:29:20;97104.38;;;16.52;57.72
1401;BME280;46518;48.842;8.926;2023-06-04T00:31:48;97094.88;;;16.46;57.66
1401;BME280;46518;48.842;8.926;2023-06-04T00:34:16;97098.38;;;16.42;57.49
1401;BME280;46518;48.842;8.926;2023-06-04T00:36:46;97106.41;;;16.36;57.63
1401;BME280;46518;48.842;8.926;2023-06-04T00:39:14;97104.84;;;16.35;57.90
1401;BME280;46518;48.842;8.926;2023-06-04T00:41:42;97092.28;;;16.17;58.04
1401;BME280;46518;48.842;8.926;2023-06-04T00:44:11;97087.59;;;16.09;58.28
1401;BME280;46518;48.842;8.926;2023-06-04T00:46:39;97091.38;;;16.03;58.37
1401;BME280;46518;48.842;8.926;2023-06-04T00:49:07;97106.75;;;16.06;58.77
1401;BME280;46518;48.842;8.926;2023-06-04T00:51:35;97114.19;;;16.04;58.74
1401;BME280;46518;48.842;8.926;2023-06-04T00:54:07;97120.38;;;15.94;58.81
1401;BME280;46518;48.842;8.926;2023-06-04T00:56:36;97115.06;;;15.94;58.89
1401;BME280;46518;48.842;8.926;2023-06-04T00:59:07;97121.72;;;15.91;58.83
1401;BME280;46518;48.842;8.926;2023-06-04T01:01:39;97128.84;;;15.96;58.89
1401;BME280;46518;48.842;8.926;2023-06-04T01:04:16;97121.47;;;15.93;58.50
1401;BME280;46518;48.842;8.926;2023-06-04T01:06:50;97124.38;;;15.91;58.84
1401;BME280;46518;48.842;8.926;2023-06-04T01:09:20;97123.88;;;15.89;58.61
1401;BME280;46518;48.842;8.926;2023-06-04T01:11:48;97112.34;;;15.70;59.35
1401;BME280;46518;48.842;8.926;2023-06-04T01:14:17;97118.47;;;15.65;59.40
1401;BME280;46518;48.842;8.926;2023-06-04T01:16:49;97124.06;;;15.64;59.57
1401;BME280;46518;48.842;8.926;2023-06-04T01:19:38;97123.56;;;15.57;59.74
1401;BME280;46518;48.842;8.926;2023-06-04T01:22:13;97125.44;;;15.56;59.89
1401;BME280;46518;48.842;8.926;2023-06-04T01:24:52;97132.88;;;15.54;59.91
1401;BME280;46518;48.842;8.926;2023-06-04T01:27:23;97123.69;;;15.41;60.06
1401;BME280;46518;48.842;8.926;2023-06-04T01:29:51;97119.94;;;15.42;59.92
1401;BME280;46518;48.842;8.926;2023-06-04T01:32:19;97115.47;;;15.43;59.90
1401;BME280;46518;48.842;8.926;2023-06-04T01:34:47;97109.16;;;15.34;59.99
1401;BME280;46518;48.842;8.926;2023-06-04T01:37:17;97091.22;;;15.20;59.83
1401;BME280;46518;48.842;8.926;2023-06-04T01:39:46;97115.75;;;15.36;60.07
1401;BME280;46518;48.842;8.926;2023-06-04T01:42:15;97114.72;;;15.32;59.87
1401;BME280;46518;48.842;8.926;2023-06-04T01:44:44;97122.19;;;15.25;60.14
1401;BME280;46518;48.842;8.926;2023-06-04T01:47:13;97094.19;;;15.08;59.79
1401;BME280;46518;48.842;8.926;2023-06-04T01:49:42;97121.44;;;15.19;60.03
1401;BME280;46518;48.842;8.926;2023-06-04T01:52:10;97112.69;;;15.19;60.26
1401;BME280;46518;48.842;8.926;2023-06-04T01:54:38;97115.91;;;15.16;60.55
1401;BME280;46518;48.842;8.926;2023-06-04T01:57:07;97127.06;;;15.13;60.47
1401;BME280;46518;48.842;8.926;2023-06-04T01:59:37;97125.72;;;15.15;60.58
1401;BME280;46518;48.842;8.926;2023-06-04T02:02:06;97124.66;;;15.11;60.25
1401;BME280;46518;48.842;8.926;2023-06-04T02:04:34;97118.09;;;15.03;60.03
1401;BME280;46518;48.842;8.926;2023-06-04T02:07:03;97127.38;;;15.01;60.30
1401;BME280;46518;48.842;8.926;2023-06-04T02:09:31;97121.56;;;14.99;60.66
1401;BME280;46518;48.842;8.926;2023-06-04T02:11:59;97112.59;;;14.89;60.62
1401;BME280;46518;48.842;8.926;2023-06-04T02:14:28;97125.53;;;14.96;60.77
1401;BME280;46518;48.842;8.926;2023-06-04T02:16:57;97135.34;;;15.01;60.70
1401;BME280;46518;48.842;8.926;2023-06-04T02:19:26;97132.69;;;15.01;60.16
1401;BME280;46518;48.842;8.926;2023-06-04T02:21:54;97136.66;;;14.98;60.21
1401;BME280;46518;48.842;8.926;2023-06-04T02:24:22;97128.75;;;14.93;60.58
1401;BME280;46518;48.842;8.926;2023-06-04T02:26:51;97129.00;;;14.92;60.65
1401;BME280;46518;48.842;8.926;2023-06-04T02:29:19;97130.88;;;14.91;60.84
1401;BME280;46518;48.842;8.926;2023-06-04T02:31:46;97142.50;;;14.90;60.84
1401;BME280;46518;48.842;8.926;2023-06-04T02:34:16;97130.38;;;14.84;60.79
1401;BME280;46518;48.842;8.926;2023-06-04T02:36:44;97130.91;;;14.81;60.82
1401;BME280;46518;48.842;8.926;2023-06-04T02:39:15;97134.63;;;14.80;60.80
1401;BME280;46518;48.842;8.926;2023-06-04T02:41:43;97115.91;;;14.61;60.83
1401;BME280;46518;48.842;8.926;2023-06-04T02:44:11;97136.28;;;14.65;61.21
1401;BME280;46518;48.842;8.926;2023-06-04T02:46:39;97135.47;;;14.65;60.99
1401;BME280;46518;48.842;8.926;2023-06-04T02:49:08;97133.63;;;14.65;61.08
1401;BME280;46518;48.842;8.926;2023-06-04T02:51:42;97132.31;;;14.68;61.08
1401;BME280;46518;48.842;8.926;2023-06-04T02:54:10;97126.75;;;14.59;60.83
1401;BME280;46518;48.842;8.926;2023-06-04T02:56:38;97131.22;;;14.69;60.65
1401;BME280;46518;48.842;8.926;2023-06-04T02:59:07;97132.31;;;14.63;60.65
1401;BME280;46518;48.842;8.926;2023-06-04T03:01:39;97136.03;;;14.57;60.67
1401;BME280;46518;48.842;8.926;2023-06-04T03:04:07;97133.13;;;14.48;60.92
1401;BME280;46518;48.842;8.926;2023-06-04T03:06:37;97119.41;;;14.36;61.20
1401;BME280;46518;48.842;8.926;2023-06-04T03:09:07;97135.00;;;14.37;61.79
1401;BME280;46518;48.842;8.926;2023-06-04T03:11:35;97124.44;;;14.27;61.85
1401;BME280;46518;48.842;8.926;2023-06-04T03:14:04;97144.28;;;14.24;61.83
1401;BME280;46518;48.842;8.926;2023-06-04T03:16:32;97141.41;;;14.21;62.14
1401;BME280;46518;48.842;8.926;2023-06-04T03:19:00;97143.25;;;14.26;61.97
1401;BME280;46518;48.842;8.926;2023-06-04T03:21:29;97150.88;;;14.32;61.49
1401;BME280;46518;48.842;8.926;2023-06-04T03:23:57;97149.56;;;14.30;61.55
1401;BME280;46518;48.842;8.926;2023-06-04T03:26:27;97143.75;;;14.33;60.89
1401;BME280;46518;48.842;8.926;2023-06-04T03:28:55;97146.69;;;14.26;60.78
1401;BME280;46518;48.842;8.926;2023-06-04T03:31:24;97146.69;;;14.26;60.92
1401;BME280;46518;48.842;8.926;2023-06-04T03:33:53;97153.25;;;14.44;60.46
1401;BME280;46518;48.842;8.926;2023-06-04T03:36:22;97154.34;;;14.38;60.95
1401;BME280;46518;48.842;8.926;2023-06-04T03:38:58;97150.88;;;14.32;60.92
1401;BME280;46518;48.842;8.926;2023-06-04T03:41:28;97153.00;;;14.25;60.88
1401;BME280;46518;48.842;8.926;2023-06-04T03:43:57;97155.94;;;14.29;61.00
1401;BME280;46518;48.842;8.926;2023-06-04T03:46:26;97154.34;;;14.28;60.84
1401;BME280;46518;48.842;8.926;2023-06-04T03:48:58;97150.13;;;14.21;61.01
1401;BME280;46518;48.842;8.926;2023-06-04T03:51:28;97152.78;;;14.11;60.54
1401;BME280;46518;48.842;8.926;2023-06-04T03:53:58;97160.19;;;14.04;61.01
1401;BME280;46518;48.842;8.926;2023-06-04T03:56:28;97165.25;;;14.00;61.66
1401;BME280;46518;48.842;8.926;2023-06-04T03:58:56;97157.81;;;13.97;61.93
1401;BME280;46518;48.842;8.926;2023-06-04T04:01:25;97157.56;;;13.99;62.33
1401;BME280;46518;48.842;8.926;2023-06-04T04:03:53;97168.16;;;13.94;62.43
1401;BME280;46518;48.842;8.926;2023-06-04T04:06:22;97165.50;;;13.99;62.33
1401;BME280;46518;48.842;8.926;2023-06-04T04:08:50;97167.06;;;13.95;62.77
1401;BME280;46518;48.842;8.926;2023-06-04T04:11:19;97166.28;;;13.94;62.74
1401;BME280;46518;48.842;8.926;2023-06-04T04:13:51;97164.97;;;13.92;62.90
1401;BME280;46518;48.842;8.926;2023-06-04T04:16:21;97160.75;;;13.96;62.50
1401;BME280;46518;48.842;8.926;2023-06-04T04:18:51;97175.81;;;14.11;62.41
1401;BME280;46518;48.842;8.926;2023-06-04T04:21:20;97152.50;;;14.02;61.43
1401;BME280;46518;48.842;8.926;2023-06-04T04:23:49;97163.63;;;14.20;61.07
1401;BME280;46518;48.842;8.926;2023-06-04T04:26:18;97168.38;;;14.28;61.07
1401;BME280;46518;48.842;8.926;2023-06-04T04:28:52;97176.34;;;14.23;61.11
1401;BME280;46518;48.842;8.926;2023-06-04T04:31:26;97180.56;;;14.19;61.45
1401;BME280;46518;48.842;8.926;2023-06-04T04:33:55;97178.69;;;14.30;61.28
1401;BME280;46518;48.842;8.926;2023-06-04T04:36:24;97176.84;;;14.40;60.56
1401;BME280;46518;48.842;8.926;2023-06-04T04:38:54;97180.81;;;14.38;60.42
1401;BME280;46518;48.842;8.926;2023-06-04T04:41:29;97184.25;;;14.33;61.07
1401;BME280;46518;48.842;8.926;2023-06-04T04:44:04;97192.22;;;14.28;62.06
1401;BME280;46518;48.842;8.926;2023-06-04T04:46:32;97193.53;;;14.31;62.37
1401;BME280;46518;48.842;8.926;2023-06-04T04:49:00;97193.53;;;14.26;62.41
1401;BME280;46518;48.842;8.926;2023-06-04T04:51:29;97189.81;;;14.37;62.75
1401;BME280;46518;48.842;8.926;2023-06-04T04:53:58;97192.97;;;14.49;60.71
1401;BME280;46518;48.842;8.926;2023-06-04T04:56:33;97195.91;;;14.58;61.41
1401;BME280;46518;48.842;8.926;2023-06-04T04:59:03;97189.25;;;14.65;61.65
1401;BME280;46518;48.842;8.926;2023-06-04T05:01:31;97188.19;;;14.66;61.34
1401;BME280;46518;48.842;8.926;2023-06-04T05:04:00;97195.06;;;14.73;62.00
1401;BME280;46518;48.842;8.926;2023-06-04T05:06:30;97194.25;;;14.72;62.88
1401;BME280;46518;48.842;8.926;2023-06-04T05:08:59;97194.28;;;14.67;63.26
1401;BME280;46518;48.842;8.926;2023-06-04T05:11:28;97199.34;;;14.58;62.23
1401;BME280;46518;48.842;8.926;2023-06-04T05:13:56;97198.03;;;14.56;61.96
1401;BME280;46518;48.842;8.926;2023-06-04T05:16:25;97194.06;;;14.53;61.61
1401;BME280;46518;48.842;8.926;2023-06-04T05:18:56;97205.97;;;14.61;61.40
1401;BME280;46518;48.842;8.926;2023-06-04T05:21:27;97209.91;;;14.63;60.67
1401;BME280;46518;48.842;8.926;2023-06-04T05:24:00;97209.63;;;14.70;59.87
1401;BME280;46518;48.842;8.926;2023-06-04T05:26:33;97215.97;;;14.79;58.25
1401;BME280;46518;48.842;8.926;2023-06-04T05:29:07;97211.44;;;14.85;57.10
1401;BME280;46518;48.842;8.926;2023-06-04T05:31:41;97205.09;;;14.86;56.80
1401;BME280;46518;48.842;8.926;2023-06-04T05:34:12;97213.00;;;14.96;56.76
1401;BME280;46518;48.842;8.926;2023-06-04T05:36:44;97222.50;;;15.02;56.72
1401;BME280;46518;48.842;8.926;2023-06-04T05:39:12;97217.47;;;15.06;56.65
1401;BME280;46518;48.842;8.926;2023-06-04T05:41:50;97218.50;;;15.10;56.72
1401;BME280;46518;48.842;8.926;2023-06-04T05:44:18;97228.06;;;15.11;56.97
1401;BME280;46518;48.842;8.926;2023-06-04T05:46:48;97226.94;;;15.17;56.73
1401;BME280;46518;48.842;8.926;2023-06-04T05:49:17;97225.88;;;15.23;56.32
1401;BME280;46518;48.842;8.926;2023-06-04T05:51:46;97216.31;;;15.27;56.53
1401;BME280;46518;48.842;8.926;2023-06-04T05:54:15;97214.50;;;15.23;56.91
1401;BME280;46518;48.842;8.926;2023-06-04T05:56:43;97223.97;;;15.34;56.38
1401;BME280;46518;48.842;8.926;2023-06-04T05:59:12;97222.91;;;15.35;56.66
1401;BME280;46518;48.842;8.926;2023-06-04T06:01:40;97227.66;;;15.38;57.56
1401;BME280;46518;48.842;8.926;2023-06-04T06:04:10;97229.78;;;15.36;57.93
1401;BME280;46518;48.842;8.926;2023-06-04T06:06:40;97227.13;;;15.41;58.31
1401;BME280;46518;48.842;8.926;2023-06-04T06:09:10;97231.06;;;15.49;58.25
1401;BME280;46518;48.842;8.926;2023-06-04T06:11:39;97230.75;;;15.56;58.33
1401;BME280;46518;48.842;8.926;2023-06-04T06:14:07;97231.00;;;15.59;58.15
1401;BME280;46518;48.842;8.926;2023-06-04T06:16:36;97235.47;;;15.64;58.29
1401;BME280;46518;48.842;8.926;2023-06-04T06:19:04;97238.66;;;15.71;58.47
1401;BME280;46518;48.842;8.926;2023-06-04T06:21:33;97240.50;;;15.76;58.25
1401;BME280;46518;48.842;8.926;2023-06-04T06:24:02;97243.34;;;15.84;57.29
1401;BME280;46518;48.842;8.926;2023-06-04T06:26:31;97244.94;;;15.85;57.45
1401;BME280;46518;48.842;8.926;2023-06-04T06:29:00;97242.47;;;15.94;57.24
1401;BME280;46518;48.842;8.926;2023-06-04T06:31:30;97244.25;;;16.04;57.60
1401;BME280;46518;48.842;8.926;2023-06-04T06:33:58;97238.66;;;16.10;57.43
1401;BME280;46518;48.842;8.926;2023-06-04T06:36:26;97238.34;;;16.12;56.51
1401;BME280;46518;48.842;8.926;2023-06-04T06:38:57;97243.59;;;16.22;55.98
1401;BME280;46518;48.842;8.926;2023-06-04T06:41:25;97254.69;;;16.29;54.56
1401;BME280;46518;48.842;8.926;2023-06-04T06:43:53;97250.09;;;16.40;53.23
1401;BME280;46518;48.842;8.926;2023-06-04T06:46:22;97244.69;;;16.50;52.33
1401;BME280;46518;48.842;8.926;2023-06-04T06:48:50;97257.34;;;16.58;52.23
1401;BME280;46518;48.842;8.926;2023-06-04T06:51:18;97251.72;;;16.65;52.67
1401;BME280;46518;48.842;8.926;2023-06-04T06:53:46;97266.78;;;16.75;52.59
1401;BME280;46518;48.842;8.926;2023-06-04T06:56:15;97255.25;;;16.85;52.86
1401;BME280;46518;48.842;8.926;2023-06-04T06:58:45;97256.22;;;16.94;52.99
1401;BME280;46518;48.842;8.926;2023-06-04T07:01:13;97259.56;;;17.04;52.42
1401;BME280;46518;48.842;8.926;2023-06-04T07:03:42;97256.56;;;17.11;51.16
1401;BME280;46518;48.842;8.926;2023-06-04T07:06:10;97255.66;;;17.21;50.87
1401;BME280;46518;48.842;8.926;2023-06-04T07:08:39;97258.97;;;17.32;50.18
1401;BME280;46518;48.842;8.926;2023-06-04T07:11:07;97255.72;;;17.40;50.17
1401;BME280;46518;48.842;8.926;2023-06-04T07:13:40;97268.22;;;17.58;49.89
1401;BME280;46518;48.842;8.926;2023-06-04T07:16:08;97263.03;;;17.67;49.78
1401;BME280;46518;48.842;8.926;2023-06-04T07:18:36;97262.13;;;17.77;49.54
1401;BME280;46518;48.842;8.926;2023-06-04T07:21:04;97266.25;;;17.88;49.25
1401;BME280;46518;48.842;8.926;2023-06-04T07:23:33;97265.31;;;17.98;48.89
1401;BME280;46518;48.842;8.926;2023-06-04T07:26:04;97266.81;;;18.04;48.75
1401;BME280;46518;48.842;8.926;2023-06-04T07:28:32;97265.09;;;18.13;48.00
1401;BME280;46518;48.842;8.926;2023-06-04T07:31:01;97260.97;;;18.21;47.89
1401;BME280;46518;48.842;8.926;2023-06-04T07:33:29;97267.66;;;18.37;47.75
1401;BME280;46518;48.842;8.926;2023-06-04T07:35:57;97266.09;;;18.50;47.62
1401;BME280;46518;48.842;8.926;2023-06-04T07:38:26;97268.88;;;18.59;47.61
1401;BME280;46518;48.842;8.926;2023-06-04T07:40:55;97260.50;;;18.65;47.33
1401;BME280;46518;48.842;8.926;2023-06-04T07:43:22;97254.56;;;18.68;47.38
1401;BME280;46518;48.842;8.926;2023-06-04T07:45:50;97241.16;;;18.60;47.30
1401;BME280;46518;48.842;8.926;2023-06-04T07:48:20;97256.97;;;18.70;46.76
1401;BME280;46518;48.842;8.926;2023-06-04T07:50:49;97257.69;;;18.75;47.09
1401;BME280;46518;48.842;8.926;2023-06-04T07:53:17;97263.44;;;18.83;47.40
1401;BME280;46518;48.842;8.926;2023-06-04T07:55:45;97252.56;;;18.93;47.09
1401;BME280;46518;48.842;8.926;2023-06-04T07:58:13;97260.66;;;19.02;47.21
1401;BME280;46518;48.842;8.926;2023-06-04T08:00:41;97261.94;;;19.04;47.68
1401;BME280;46518;48.842;8.926;2023-06-04T08:03:10;97255.94;;;19.12;47.11
1401;BME280;46518;48.842;8.926;2023-06-04T08:05:39;97253.72;;;19.14;46.22
1401;BME280;46518;48.842;8.926;2023-06-04T08:08:07;97243.78;;;19.20;46.40
1401;BME280;46518;48.842;8.926;2023-06-04T08:10:36;97243.84;;;19.29;47.60
1401;BME280;46518;48.842;8.926;2023-06-04T08:13:04;97239.09;;;19.39;46.35
1401;BME280;46518;48.842;8.926;2023-06-04T08:15:33;97239.00;;;19.45;46.56
1401;BME280;46518;48.842;8.926;2023-06-04T08:18:21;97245.97;;;19.54;45.34
1401;BME280;46518;48.842;8.926;2023-06-04T08:21:10;97244.78;;;19.60;45.29
1401;BME280;46518;48.842;8.926;2023-06-04T08:23:56;97235.56;;;19.67;44.52
1401;BME280;46518;48.842;8.926;2023-06-04T08:26:43;97240.25;;;19.75;45.97
1401;BME280;46518;48.842;8.926;2023-06-04T08:29:18;97241.09;;;19.84;45.58
1401;BME280;46518;48.842;8.926;2023-06-04T08:31:49;97245.72;;;19.92;44.78
1401;BME280;46518;48.842;8.926;2023-06-04T08:34:25;97239.56;;;19.92;44.92
1401;BME280;46518;48.842;8.926;2023-06-04T08:36:54;97243.09;;;20.01;44.10
1401;BME280;46518;48.842;8.926;2023-06-04T08:39:23;97245.03;;;20.09;44.40
1401;BME280;46518;48.842;8.926;2023-06-04T08:41:52;97244.00;;;20.19;44.29
1401;BME280;46518;48.842;8.926;2023-06-04T08:44:22;97238.88;;;20.22;43.75
1401;BME280;46518;48.842;8.926;2023-06-04T08:46:51;97237.63;;;20.29;43.31
1401;BME280;46518;48.842;8.926;2023-06-04T08:49:22;97247.13;;;20.35;42.93
1401;BME280;46518;48.842;8.926;2023-06-04T08:51:50;97252.84;;;20.42;43.19
1401;BME280;46518;48.842;8.926;2023-06-04T08:54:19;97243.09;;;20.46;43.75
1401;BME280;46518;48.842;8.926;2023-06-04T08:56:48;97241.66;;;20.62;42.74
1401;BME280;46518;48.842;8.926;2023-06-04T08:59:19;97228.91;;;20.59;43.68
1401;BME280;46518;48.842;8.926;2023-06-04T09:01:47;97249.44;;;20.81;43.10
1401;BME280;46518;48.842;8.926;2023-06-04T09:04:16;97248.03;;;20.84;42.05
1401;BME280;46518;48.842;8.926;2023-06-04T09:06:45;97254.41;;;20.97;41.40
1401;BME280;46518;48.842;8.926;2023-06-04T09:09:14;97255.19;;;21.06;41.10
1401;BME280;46518;48.842;8.926;2023-06-04T09:11:50;97258.06;;;21.09;41.02
1401;BME280;46518;48.842;8.926;2023-06-04T09:14:20;97255.25;;;21.15;41.51
1401;BME280;46518;48.842;8.926;2023-06-04T09:16:49;97261.72;;;21.22;41.03
1401;BME280;46518;48.842;8.926;2023-06-04T09:19:18;97261.09;;;21.25;40.96
1401;BME280;46518;48.842;8.926;2023-06-04T09:21:48;97269.13;;;21.34;40.09
1401;BME280;46518;48.842;8.926;2023-06-04T09:24:16;97271.81;;;21.34;39.42
1401;BME280;46518;48.842;8.926;2023-06-04T09:26:45;97270.09;;;21.38;39.18
1401;BME280;46518;48.842;8.926;2023-06-04T09:29:15;97272.16;;;21.41;38.63
1401;BME280;46518;48.842;8.926;2023-06-04T09:31:45;97272.97;;;21.50;38.39
1401;BME280;46518;48.842;8.926;2023-06-04T09:34:14;97270.78;;;21.52;38.19
1401;BME280;46518;48.842;8.926;2023-06-04T09:36:42;97274.59;;;21.60;38.15
1401;BME280;46518;48.842;8.926;2023-06-04T09:39:16;97270.34;;;21.68;38.65
1401;BME280;46518;48.842;8.926;2023-06-04T09:41:57;97270.81;;;21.79;38.43
1401;BME280;46518;48.842;8.926;2023-06-04T09:44:26;97265.00;;;21.85;38.66
1401;BME280;46518;48.842;8.926;2023-06-04T09:46:55;97266.88;;;21.93;37.75
1401;BME280;46518;48.842;8.926;2023-06-04T09:49:23;97268.31;;;22.00;37.69
1401;BME280;46518;48.842;8.926;2023-06-04T09:51:51;97270.19;;;22.08;38.60
1401;BME280;46518;48.842;8.926;2023-06-04T09:54:20;97270.66;;;22.18;38.39
1401;BME280;46518;48.842;8.926;2023-06-04T09:56:48;97268.66;;;22.24;38.37
1401;BME280;46518;48.842;8.926;2023-06-04T09:59:16;97259.31;;;22.30;38.22
1401;BME280;46518;48.842;8.926;2023-06-04T10:01:47;97266.09;;;22.36;37.54
1401;BME280;46518;48.842;8.926;2023-06-04T10:04:15;97253.66;;;22.32;37.94
1401;BME280;46518;48.842;8.926;2023-06-04T10:06:44;97261.50;;;22.46;37.75
1401;BME280;46518;48.842;8.926;2023-06-04T10:09:13;97259.25;;;22.56;37.20
1401;BME280;46518;48.842;8.926;2023-06-04T10:11:46;97258.78;;;22.63;37.34
1401;BME280;46518;48.842;8.926;2023-06-04T10:14:19;97258.75;;;22.72;37.08
1401;BME280;46518;48.842;8.926;2023-06-04T10:16:51;97260.31;;;22.73;36.74
1401;BME280;46518;48.842;8.926;2023-06-04T10:19:19;97250.06;;;22.75;36.42
1401;BME280;46518;48.842;8.926;2023-06-04T10:21:48;97250.38;;;22.82;36.05
1401;BME280;46518;48.842;8.926;2023-06-04T10:24:16;97249.84;;;22.89;35.89
1401;BME280;46518;48.842;8.926;2023-06-04T10:26:47;97257.28;;;22.92;34.66
1401;BME280;46518;48.842;8.926;2023-06-04T10:29:16;97256.78;;;22.98;34.75
1401;BME280;46518;48.842;8.926;2023-06-04T10:31:45;97241.16;;;23.00;35.42
1401;BME280;46518;48.842;8.926;2023-06-04T10:34:15;97248.25;;;23.05;34.93
1401;BME280;46518;48.842;8.926;2023-06-04T10:36:44;97246.34;;;23.06;34.51
1401;BME280;46518;48.842;8.926;2023-06-04T10:39:13;97238.56;;;23.13;34.95
1401;BME280;46518;48.842;8.926;2023-06-04T10:41:41;97231.81;;;23.07;36.02
1401;BME280;46518;48.842;8.926;2023-06-04T10:44:10;97242.31;;;23.20;34.89
1401;BME280;46518;48.842;8.926;2023-06-04T10:46:40;97241.81;;;23.27;34.78
1401;BME280;46518;48.842;8.926;2023-06-04T10:49:10;97238.94;;;23.32;34.00
1401;BME280;46518;48.842;8.926;2023-06-04T10:51:40;97236.38;;;23.36;33.94
1401;BME280;46518;48.842;8.926;2023-06-04T10:54:10;97234.81;;;23.35;33.54
1401;BME280;46518;48.842;8.926;2023-06-04T10:56:38;97238.56;;;23.42;34.01
1401;BME280;46518;48.842;8.926;2023-06-04T10:59:14;97231.25;;;23.52;33.73
1401;BME280;46518;48.842;8.926;2023-06-04T11:01:42;97234.81;;;23.56;34.15
1401;BME280;46518;48.842;8.926;2023-06-04T11:04:19;97232.75;;;23.61;33.30
1401;BME280;46518;48.842;8.926;2023-06-04T11:07:00;97234.78;;;23.64;33.17
1401;BME280;46518;48.842;8.926;2023-06-04T11:09:29;97232.69;;;23.70;32.57
1401;BME280;46518;48.842;8.926;2023-06-04T11:12:00;97229.03;;;23.75;32.64
1401;BME280;46518;48.842;8.926;2023-06-04T11:14:29;97224.91;;;23.77;33.31
1401;BME280;46518;48.842;8.926;2023-06-04T11:16:57;97228.38;;;23.78;33.46
1401;BME280;46518;48.842;8.926;2023-06-04T11:19:36;97219.19;;;23.79;32.34
1401;BME280;46518;48.842;8.926;2023-06-04T11:22:10;97230.78;;;23.71;32.48
1401;BME280;46518;48.842;8.926;2023-06-04T11:24:38;97216.50;;;23.79;32.70
1401;BME280;46518;48.842;8.926;2023-06-04T11:27:06;97230.00;;;23.91;32.31
1401;BME280;46518;48.842;8.926;2023-06-04T11:29:43;97230.19;;;23.86;33.66
1401;BME280;46518;48.842;8.926;2023-06-04T11:32:21;97230.47;;;23.93;32.93
1401;BME280;46518;48.842;8.926;2023-06-04T11:34:49;97233.28;;;23.97;33.14
1401;BME280;46518;48.842;8.926;2023-06-04T11:37:18;97228.56;;;23.94;32.33
1401;BME280;46518;48.842;8.926;2023-06-04T11:39:46;97226.22;;;23.92;31.70
1401;BME280;46518;48.842;8.926;2023-06-04T11:42:15;97221.31;;;23.94;32.97
1401;BME280;46518;48.842;8.926;2023-06-04T11:44:45;97220.00;;;24.13;32.97
1401;BME280;46518;48.842;8.926;2023-06-04T11:47:15;97216.53;;;24.12;35.19
1401;BME280;46518;48.842;8.926;2023-06-04T11:49:44;97223.88;;;24.36;33.90
1401;BME280;46518;48.842;8.926;2023-06-04T11:52:13;97213.84;;;24.45;32.56
1401;BME280;46518;48.842;8.926;2023-06-04T11:54:42;97217.91;;;24.51;32.58
1401;BME280;46518;48.842;8.926;2023-06-04T11:57:11;97220.03;;;24.58;32.06
1401;BME280;46518;48.842;8.926;2023-06-04T11:59:39;97218.25;;;24.62;31.37
1401;BME280;46518;48.842;8.926;2023-06-04T12:02:07;97209.97;;;24.67;31.26
1401;BME280;46518;48.842;8.926;2023-06-04T12:04:35;97199.44;;;24.62;32.20
1401;BME280;46518;48.842;8.926;2023-06-04T12:07:04;97213.47;;;24.80;32.89
1401;BME280;46518;48.842;8.926;2023-06-04T12:09:33;97209.78;;;24.97;31.41
1401;BME280;46518;48.842;8.926;2023-06-04T12:12:06;97214.38;;;25.09;31.09
1401;BME280;46518;48.842;8.926;2023-06-04T12:14:34;97202.00;;;25.08;30.65
1401;BME280;46518;48.842;8.926;2023-06-04T12:17:06;97199.31;;;24.95;29.43
1401;BME280;46518;48.842;8.926;2023-06-04T12:19:46;97194.06;;;25.11;30.10
1401;BME280;46518;48.842;8.926;2023-06-04T12:22:15;97196.78;;;25.24;30.38
1401;BME280;46518;48.842;8.926;2023-06-04T12:24:48;97191.34;;;25.36;30.61
1401;BME280;46518;48.842;8.926;2023-06-04T12:27:17;97190.09;;;25.46;30.94
1401;BME280;46518;48.842;8.926;2023-06-04T12:29:54;97186.50;;;25.54;29.32
1401;BME280;46518;48.842;8.926;2023-06-04T12:32:22;97188.75;;;25.52;29.43
1401;BME280;46518;48.842;8.926;2023-06-04T12:34:50;97195.50;;;25.33;28.97
1401;BME280;46518;48.842;8.926;2023-06-04T12:37:18;97194.16;;;25.39;28.29
1401;BME280;46518;48.842;8.926;2023-06-04T12:39:46;97197.19;;;25.38;30.65
1401;BME280;46518;48.842;8.926;2023-06-04T12:42:15;97206.47;;;25.53;29.09
1401;BME280;46518;48.842;8.926;2023-06-04T12:44:44;97203.78;;;25.53;29.43
1401;BME280;46518;48.842;8.926;2023-06-04T12:47:12;97209.41;;;25.48;28.78
1401;BME280;46518;48.842;8.926;2023-06-04T12:49:41;97204.47;;;25.50;28.54
1401;BME280;46518;48.842;8.926;2023-06-04T12:52:09;97202.88;;;25.61;28.04
1401;BME280;46518;48.842;8.926;2023-06-04T12:54:37;97205.31;;;25.66;28.61
1401;BME280;46518;48.842;8.926;2023-06-04T12:57:05;97195.78;;;25.69;29.30
1401;BME280;46518;48.842;8.926;2023-06-04T12:59:33;97193.94;;;25.73;28.65
1401;BME280;46518;48.842;8.926;2023-06-04T13:02:03;97198.22;;;25.86;28.79
1401;BME280;46518;48.842;8.926;2023-06-04T13:04:31;97189.53;;;25.80;28.90
1401;BME280;46518;48.842;8.926;2023-06-04T13:06:59;97193.69;;;25.90;28.42
1401;BME280;46518;48.842;8.926;2023-06-04T13:09:27;97191.53;;;25.96;28.43
1401;BME280;46518;48.842;8.926;2023-06-04T13:11:55;97194.06;;;26.04;28.61
1401;BME280;46518;48.842;8.926;2023-06-04T13:14:23;97187.53;;;26.06;28.77
1401;BME280;46518;48.842;8.926;2023-06-04T13:16:52;97180.25;;;26.06;28.23
1401;BME280;46518;48.842;8.926;2023-06-04T13:19:21;97188.38;;;25.53;28.06
1401;BME280;46518;48.842;8.926;2023-06-04T13:21:52;97189.09;;;25.13;29.50
1401;BME280;46518;48.842;8.926;2023-06-04T13:24:20;97185.91;;;25.48;28.60